Time;durP1;ratioP1;P1;durP2;ratioP2;P2;SDS_P1;SDS_P2;PMS_P1;PMS_P2;Temp;Humidity;BMP_temperature;BMP_pressure;BME280_temperature;BME280_humidity;BME280_pressure;Samples;Min_cycle;Max_cycle;Signal;HPM_P1;HPM_P2
2023/03/27 00:10:01;;;;;;;11.00;7.40;;;;;;;8.35;100.00;98792.46;180539;1252;58781;31
2023/03/27 00:19:08;;;;;;;8.70;7.60;;;;;;;8.35;100.00;98797.74;181588;1255;44055;-89
2023/03/27 00:28:27;;;;;;;9.70;7.90;;;;;;;8.43;100.00;98793.06;181312;1259;44224;-89
2023/03/27 00:33:08;;;;;;;9.00;7.00;;;;;;;8.50;100.00;98797.45;181509;1257;58985;-90
2023/03/27 00:42:29;;;;;;;8.40;5.50;;;;;;;8.46;100.00;98794.26;177896;1252;44999;31
2023/03/27 00:56:38;;;;;;;7.40;5.30;;;;;;;8.45;100.00;98792.36;181269;1256;57184;31
2023/03/27 01:05:55;;;;;;;4.00;3.20;;;;;;;8.39;100.00;98777.94;181324;1257;44324;31
2023/03/27 01:20:54;;;;;;;3.20;2.20;;;;;;;8.35;100.00;98772.86;181139;1257;59468;31
2023/03/27 01:25:33;;;;;;;4.80;2.60;;;;;;;8.30;100.00;98763.97;174887;1257;45540;-89
2023/03/27 01:35:03;;;;;;;5.00;3.10;;;;;;;8.31;100.00;98771.86;175554;1253;45068;-90
2023/03/27 02:00:16;;;;;;;12.30;7.80;;;;;;;8.32;100.00;98779.72;169206;1254;44989;31
2023/03/27 02:05:23;;;;;;;11.40;7.80;;;;;;;8.24;100.00;98783.63;181052;1255;44344;31
2023/03/27 02:09:37;;;;;;;18.50;10.70;;;;;;;8.16;100.00;98786.89;180437;1252;58389;31
2023/03/27 02:14:27;;;;;;;16.50;11.20;;;;;;;8.05;100.00;98799.73;179096;1254;44533;31
2023/03/27 02:19:29;;;;;;;19.00;11.90;;;;;;;7.75;100.00;98805.66;170195;1257;45175;-89
2023/03/27 02:48:46;;;;;;;15.50;9.50;;;;;;;6.25;98.54;98868.55;181143;1261;47191;-88
2023/03/27 02:59:04;;;;;;;19.30;7.30;;;;;;;5.99;99.96;98874.97;173553;1258;59431;31
2023/03/27 03:04:03;;;;;;;21.90;7.30;;;;;;;5.89;99.97;98891.10;168054;1260;45038;-88
2023/03/27 03:18:34;;;;;;;12.10;5.00;;;;;;;5.68;98.77;98929.14;181374;1259;47137;-89
2023/03/27 03:27:42;;;;;;;13.50;6.10;;;;;;;5.45;97.74;98956.89;181404;1261;44118;-90
2023/03/27 03:32:02;;;;;;;16.50;6.50;;;;;;;5.39;98.23;98960.85;181555;1259;43956;-90
2023/03/27 03:41:22;;;;;;;13.90;4.40;;;;;;;5.30;98.92;98992.69;181378;1259;44175;-90
2023/03/27 03:50:24;;;;;;;10.00;4.10;;;;;;;5.09;99.57;99003.13;181305;1259;43999;-89
2023/03/27 03:54:28;;;;;;;8.80;3.10;;;;;;;4.96;99.98;99008.36;181130;1259;43716;-89
2023/03/27 03:58:37;;;;;;;7.30;3.50;;;;;;;4.81;100.00;99010.91;181261;1256;44242;-90
2023/03/27 04:07:11;;;;;;;7.20;4.20;;;;;;;4.48;100.00;99033.30;180991;1261;59657;-89
2023/03/27 04:11:14;;;;;;;4.90;3.00;;;;;;;4.14;100.00;99035.13;180891;1261;43797;-88
2023/03/27 04:15:20;;;;;;;6.50;4.20;;;;;;;3.83;100.00;99049.50;180987;1261;43984;-90
2023/03/27 04:19:24;;;;;;;6.60;4.20;;;;;;;3.61;100.00;99061.66;181089;1261;43790;-90
2023/03/27 04:23:30;;;;;;;9.20;3.80;;;;;;;3.42;100.00;99066.63;181056;1260;43736;-89
2023/03/27 04:27:34;;;;;;;6.00;3.10;;;;;;;3.36;100.00;99074.64;180986;1261;59812;-89
2023/03/27 04:31:39;;;;;;;5.80;2.70;;;;;;;3.27;100.00;99085.05;181061;1261;43945;-90
2023/03/27 04:49:49;;;;;;;6.10;3.90;;;;;;;2.86;100.00;99136.40;181195;1256;60830;-89
2023/03/27 05:32:38;;;;;;;1.80;1.70;;;;;;;1.76;100.00;99250.20;180394;1252;45789;31
2023/03/27 06:16:56;;;;;;;3.10;2.70;;;;;;;1.86;100.00;99295.59;181342;1257;44802;-90
2023/03/27 06:45:33;;;;;;;11.00;5.60;;;;;;;1.82;100.00;99340.92;181374;1259;44160;-90
2023/03/27 06:49:39;;;;;;;;;;;;;;;1.87;100.00;99355.10;181350;1259;59315;-89
2023/03/27 06:53:45;;;;;;;9.60;5.50;;;;;;;1.94;100.00;99362.91;181345;1259;43847;-89
2023/03/27 06:57:54;;;;;;;5.80;5.10;;;;;;;2.05;100.00;99367.36;181156;1259;43776;-89
2023/03/27 07:01:58;;;;;;;6.70;5.00;;;;;;;2.17;100.00;99371.14;181162;1259;43828;-89
2023/03/27 07:06:02;;;;;;;8.00;5.10;;;;;;;2.18;100.00;99373.71;181111;1259;43839;-90
2023/03/27 07:10:07;;;;;;;7.20;4.80;;;;;;;2.16;100.00;99378.56;181156;1259;59524;-89
2023/03/27 07:14:11;;;;;;;10.60;8.30;;;;;;;2.16;100.00;99381.16;181111;1259;43798;-89
2023/03/27 07:18:15;;;;;;;11.40;7.40;;;;;;;2.30;100.00;99387.85;181202;1259;43781;-89
2023/03/27 07:22:22;;;;;;;12.70;6.30;;;;;;;2.41;100.00;99397.52;181105;1258;49634;-89
2023/03/27 07:26:28;;;;;;;9.10;6.00;;;;;;;2.49;100.00;99408.55;181185;1259;43821;-89
2023/03/27 07:30:34;;;;;;;7.70;5.20;;;;;;;2.57;100.00;99409.83;181150;1259;59756;-89
2023/03/27 07:34:39;;;;;;;6.90;5.00;;;;;;;2.64;100.00;99417.77;181171;1259;44144;-91
2023/03/27 07:38:46;;;;;;;8.30;4.80;;;;;;;2.67;100.00;99416.54;181244;1259;43918;-91
2023/03/27 08:01:04;;;;;;;3.90;3.60;;;;;;;2.95;100.00;99441.38;181154;1258;44027;-84
2023/03/27 08:05:10;;;;;;;5.10;4.00;;;;;;;2.92;100.00;99444.61;181150;1258;44147;-84
2023/03/27 08:09:13;;;;;;;3.60;1.70;;;;;;;2.87;100.00;99446.66;181144;1258;44103;-84
2023/03/27 08:13:17;;;;;;;6.10;1.70;;;;;;;2.84;100.00;99449.98;181091;1257;57708;-84
2023/03/27 08:17:20;;;;;;;5.90;3.50;;;;;;;2.91;100.00;99455.52;181118;1258;43945;-84
2023/03/27 08:21:24;;;;;;;5.10;2.30;;;;;;;2.99;100.00;99460.45;181056;1258;43946;-84
2023/03/27 08:25:28;;;;;;;3.40;1.90;;;;;;;3.01;100.00;99470.84;181193;1258;44023;-84
2023/03/27 08:29:31;;;;;;;4.80;2.90;;;;;;;2.93;98.50;99474.28;181138;1259;43926;-84
2023/03/27 08:33:35;;;;;;;5.00;3.20;;;;;;;3.03;99.92;99475.43;181102;1260;59231;-84
2023/03/27 08:37:38;;;;;;;7.50;2.60;;;;;;;3.20;100.00;99481.90;181142;1258;44245;-84
2023/03/27 08:41:51;;;;;;;1.60;1.50;;;;;;;3.05;96.35;99477.78;181228;1258;43746;-84
2023/03/27 08:46:04;;;;;;;10.90;2.00;;;;;;;2.95;93.98;99489.40;181282;1258;44058;-84
2023/03/27 08:50:33;;;;;;;1.80;1.40;;;;;;;2.84;94.38;99497.98;181036;1258;44013;-84
2023/03/27 08:54:38;;;;;;;6.30;1.80;;;;;;;2.82;92.76;99506.69;181128;1258;59572;-84
2023/03/27 08:58:43;;;;;;;1.50;1.40;;;;;;;2.89;94.33;99510.28;181096;1261;44126;-84
2023/03/27 09:03:08;;;;;;;3.70;1.80;;;;;;;2.98;93.58;99509.19;181044;1258;44163;-84
2023/03/27 09:07:43;;;;;;;1.90;1.10;;;;;;;3.14;94.17;99514.55;181135;1258;44133;-84
2023/03/27 09:12:21;;;;;;;1.90;1.70;;;;;;;3.19;91.53;99510.71;181206;1257;43780;-84
2023/03/27 09:16:29;;;;;;;2.00;1.00;;;;;;;3.25;92.39;99520.64;181088;1258;59678;-84
2023/03/27 09:20:55;;;;;;;2.60;2.20;;;;;;;3.31;91.50;99526.93;181102;1258;43814;-83
2023/03/27 09:25:03;;;;;;;2.40;2.10;;;;;;;3.48;91.88;99528.63;181124;1258;44323;-84
2023/03/27 09:29:18;;;;;;;2.70;2.20;;;;;;;3.55;85.64;99524.72;180969;1258;44101;-84
2023/03/27 09:33:24;;;;;;;2.70;2.40;;;;;;;3.58;84.59;99525.60;180858;1258;210824;-84
2023/03/27 09:37:27;;;;;;;4.50;2.40;;;;;;;3.47;83.02;99534.70;181072;1258;58049;-84
2023/03/27 09:41:37;;;;;;;4.20;2.60;;;;;;;3.45;83.18;99536.21;181060;1257;44105;-84
2023/03/27 09:45:43;;;;;;;5.20;1.90;;;;;;;3.52;84.76;99540.48;181147;1258;43723;-84
2023/03/27 09:49:52;;;;;;;7.40;2.20;;;;;;;3.58;85.08;99553.11;180984;1258;43847;-84
2023/03/27 09:53:57;;;;;;;1.50;1.40;;;;;;;3.59;81.83;99561.99;181051;1258;44085;-84
2023/03/27 09:58:14;;;;;;;2.80;2.00;;;;;;;3.57;79.21;99567.38;181130;1258;59474;-84
2023/03/27 10:02:21;;;;;;;2.70;2.20;;;;;;;3.62;78.44;99577.90;181084;1259;44190;-84
2023/03/27 10:06:37;;;;;;;3.40;1.10;;;;;;;3.71;77.35;99584.86;181118;1257;44159;-83
2023/03/27 10:10:44;;;;;;;3.50;1.80;;;;;;;4.01;79.53;99581.77;181040;1259;44132;-85
2023/03/27 10:14:50;;;;;;;2.00;1.70;;;;;;;4.32;78.31;99587.73;181188;1258;43835;-85
2023/03/27 10:18:58;;;;;;;4.10;1.80;;;;;;;4.31;75.42;99592.04;181183;1258;57896;-85
2023/03/27 10:23:07;;;;;;;2.40;1.80;;;;;;;4.51;75.27;99593.20;181079;1258;43975;-85
2023/03/27 10:27:18;;;;;;;1.10;1.00;;;;;;;4.55;73.60;99593.29;181197;1257;43941;-85
2023/03/27 10:31:27;;;;;;;2.60;1.60;;;;;;;4.64;70.94;99598.77;181086;1259;44235;-85
2023/03/27 10:35:43;;;;;;;3.50;1.20;;;;;;;4.96;74.63;99610.53;181033;1260;44489;-84
2023/03/27 10:39:46;;;;;;;3.00;1.20;;;;;;;5.00;70.69;99619.19;181247;1259;59310;-85
2023/03/27 10:43:51;;;;;;;2.70;1.10;;;;;;;4.91;71.81;99625.45;181043;1259;44125;-84
2023/03/27 10:47:58;;;;;;;1.40;1.10;;;;;;;4.79;70.38;99626.27;181079;1258;43938;-84
2023/03/27 10:52:15;;;;;;;1.10;1.10;;;;;;;4.83;71.03;99637.04;181140;1258;44333;-85
2023/03/27 10:56:25;;;;;;;2.10;0.90;;;;;;;4.76;67.55;99645.92;181212;1258;43841;-85
2023/03/27 11:00:42;;;;;;;1.00;0.80;;;;;;;4.77;70.06;99647.80;181151;1259;59234;-85
2023/03/27 11:05:01;;;;;;;2.30;0.80;;;;;;;4.98;70.05;99657.14;181119;1260;43899;-85
2023/03/27 11:09:14;;;;;;;1.30;1.00;;;;;;;5.01;69.85;99658.34;181092;1258;43949;-85
2023/03/27 11:13:29;;;;;;;2.00;0.90;;;;;;;5.07;70.00;99663.18;181118;1258;44130;-84
2023/03/27 11:17:50;;;;;;;0.50;0.50;;;;;;;5.02;69.98;99668.25;181140;1258;44080;-85
2023/03/27 11:21:58;;;;;;;0.60;0.40;;;;;;;5.06;70.41;99671.54;181085;1258;58593;-85
2023/03/27 11:26:04;;;;;;;1.50;1.00;;;;;;;5.08;71.13;99673.98;181077;1258;43980;-85
2023/03/27 11:30:08;;;;;;;1.10;0.50;;;;;;;5.16;66.17;99675.95;181177;1258;44137;-85
2023/03/27 11:34:19;;;;;;;0.40;0.30;;;;;;;5.22;65.71;99675.34;181220;1259;43790;-85
2023/03/27 11:38:40;;;;;;;1.20;0.60;;;;;;;5.51;63.62;99674.61;181179;1258;43731;-84
2023/03/27 11:42:45;;;;;;;1.00;0.60;;;;;;;5.76;63.00;99675.67;181093;1258;59237;-85
2023/03/27 11:46:57;;;;;;;0.60;0.50;;;;;;;5.77;62.47;99673.63;181200;1259;44000;-85
2023/03/27 11:51:30;;;;;;;1.80;0.80;;;;;;;5.60;60.29;99673.77;181212;1257;43782;-85
2023/03/27 11:55:35;;;;;;;2.50;0.60;;;;;;;5.64;59.17;99687.00;181180;1259;48011;-85
2023/03/27 11:59:38;;;;;;;2.00;1.50;;;;;;;5.69;60.02;99688.29;181234;1257;44147;-85
2023/03/27 12:04:07;;;;;;;1.60;0.70;;;;;;;5.64;61.04;99694.04;181248;1258;59540;-85
2023/03/27 12:08:54;;;;;;;0.80;0.60;;;;;;;5.56;59.53;99690.05;181200;1258;43905;-85
2023/03/27 12:13:09;;;;;;;2.10;0.40;;;;;;;5.90;63.20;99684.83;180246;1267;44405;-85
2023/03/27 12:17:50;;;;;;;4.10;0.90;;;;;;;6.00;59.97;99688.56;180319;1267;44122;-86
2023/03/27 12:22:07;;;;;;;0.50;0.40;;;;;;;6.06;59.77;99688.52;179400;1273;44114;-86
2023/03/27 12:26:52;;;;;;;2.20;0.90;;;;;;;6.13;63.56;99691.52;179236;1272;60049;-86
2023/03/27 12:31:19;;;;;;;0.70;0.40;;;;;;;6.20;58.23;99692.23;179175;1272;44103;-86
2023/03/27 12:35:26;;;;;;;0.10;0.10;;;;;;;5.92;55.81;99695.63;179303;1273;43974;-86
2023/03/27 12:39:29;;;;;;;2.90;0.80;;;;;;;5.73;57.19;99691.19;179309;1272;44066;-85
2023/03/27 12:43:38;;;;;;;0.60;0.60;;;;;;;5.62;56.33;99696.70;179290;1273;43912;-85
2023/03/27 12:48:05;;;;;;;0.90;0.90;;;;;;;5.63;57.87;99698.54;179404;1265;58460;-86
2023/03/27 12:52:09;;;;;;;1.00;0.30;;;;;;;5.73;58.69;99701.52;180311;1265;44103;-83
2023/03/27 12:56:15;;;;;;;1.10;0.70;;;;;;;6.20;58.80;99694.52;180385;1258;44590;-83
2023/03/27 13:00:27;;;;;;;51.00;15.50;;;;;;;6.41;55.58;99694.41;181174;1258;44242;-85
2023/03/27 13:04:48;;;;;;;4.80;0.60;;;;;;;6.45;56.71;99700.46;180923;1257;43861;-84
2023/03/27 13:09:30;;;;;;;2.30;0.70;;;;;;;6.56;57.60;99701.26;181011;1259;58729;-84
2023/03/27 13:14:01;;;;;;;2.80;1.10;;;;;;;6.49;53.38;99711.77;181061;1259;48467;-84
2023/03/27 13:18:43;;;;;;;0.60;0.40;;;;;;;6.59;53.41;99715.96;181143;1257;43741;-84
2023/03/27 13:23:04;;;;;;;1.30;1.00;;;;;;;6.37;52.04;99721.28;180995;1261;43846;-83
2023/03/27 13:27:36;;;;;;;0.80;0.50;;;;;;;6.57;56.01;99729.20;180896;1258;44080;-83
2023/03/27 13:31:45;;;;;;;0.60;0.40;;;;;;;6.73;52.95;99724.34;181019;1259;59626;-83
2023/03/27 13:35:57;;;;;;;1.00;0.90;;;;;;;6.68;52.12;99736.65;181009;1259;43985;-83
2023/03/27 13:40:06;;;;;;;1.40;0.90;;;;;;;7.07;54.12;99741.86;181037;1259;43995;-82
2023/03/27 13:44:18;;;;;;;1.30;0.50;;;;;;;7.24;52.13;99739.20;181009;1258;43845;-83
2023/03/27 13:48:27;;;;;;;0.60;0.40;;;;;;;7.41;53.47;99735.58;180885;1259;44226;-83
2023/03/27 13:53:07;;;;;;;2.20;0.80;;;;;;;7.14;51.28;99737.45;181008;1260;59761;-83
2023/03/27 13:57:40;;;;;;;1.60;1.10;;;;;;;6.56;52.32;99748.84;180893;1259;44020;-82
2023/03/27 14:02:13;;;;;;;0.70;0.40;;;;;;;6.30;53.63;99752.10;180907;1259;43978;-83
2023/03/27 14:06:28;;;;;;;1.30;0.80;;;;;;;6.02;54.41;99758.83;180936;1259;44095;-83
2023/03/27 14:10:38;;;;;;;2.00;1.00;;;;;;;5.97;54.69;99766.90;181035;1259;43797;-83
2023/03/27 14:15:02;;;;;;;1.20;1.10;;;;;;;5.88;52.84;99775.42;181009;1258;57516;-83
2023/03/27 14:19:21;;;;;;;1.00;0.70;;;;;;;5.88;51.44;99776.67;181012;1259;43938;-83
2023/03/27 14:23:48;;;;;;;1.40;0.80;;;;;;;5.88;52.58;99780.75;181029;1259;44003;-83
2023/03/27 14:27:53;;;;;;;0.70;0.50;;;;;;;5.79;53.17;99784.36;180857;1259;44172;-83
2023/03/27 14:32:05;;;;;;;1.10;0.70;;;;;;;5.73;52.09;99788.11;180875;1261;44133;-83
2023/03/27 14:36:15;;;;;;;2.40;0.70;;;;;;;5.72;52.55;99790.98;180965;1259;57934;-84
2023/03/27 14:40:28;;;;;;;1.60;0.70;;;;;;;5.86;53.75;99793.34;180905;1259;43988;-84
2023/03/27 14:44:32;;;;;;;0.40;0.40;;;;;;;6.19;53.50;99799.55;180994;1262;43921;-84
2023/03/27 14:48:41;;;;;;;1.70;0.70;;;;;;;6.47;50.06;99796.36;180988;1259;44072;-84
2023/03/27 14:52:50;;;;;;;0.80;0.30;;;;;;;6.58;49.97;99805.60;181084;1260;44247;-83
2023/03/27 14:56:57;;;;;;;1.50;0.90;;;;;;;6.56;49.99;99808.55;180930;1258;59241;-84
2023/03/27 15:01:00;;;;;;;1.30;0.80;;;;;;;6.54;50.94;99813.24;180997;1260;43885;-83
2023/03/27 15:05:16;;;;;;;0.30;0.30;;;;;;;6.48;52.13;99821.61;180875;1259;44697;-83
2023/03/27 15:09:22;;;;;;;1.00;0.90;;;;;;;6.39;50.20;99821.36;180987;1260;43790;-84
2023/03/27 15:13:32;;;;;;;2.60;1.10;;;;;;;6.39;51.45;99826.66;181016;1260;43735;-83
2023/03/27 15:17:37;;;;;;;2.20;1.00;;;;;;;6.67;50.77;99823.09;181034;1258;58823;-83
2023/03/27 15:21:49;;;;;;;1.20;0.40;;;;;;;6.67;49.44;99829.05;181002;1261;44243;-84
2023/03/27 15:26:01;;;;;;;5.40;4.20;;;;;;;6.57;49.78;99838.38;180871;1260;44313;-84
2023/03/27 15:30:27;;;;;;;2.70;1.90;;;;;;;6.66;49.62;99837.05;181041;1261;44293;-85
2023/03/27 15:34:36;;;;;;;3.10;0.80;;;;;;;6.83;50.27;99843.08;180997;1259;43922;-83
2023/03/27 15:38:41;;;;;;;1.60;0.80;;;;;;;6.81;50.30;99848.30;180933;1261;59559;-84
2023/03/27 15:42:50;;;;;;;2.40;1.20;;;;;;;6.62;50.65;99853.58;180954;1259;44284;-84
2023/03/27 15:46:56;;;;;;;1.30;0.80;;;;;;;6.70;53.92;99859.49;180963;1260;44523;-84
2023/03/27 15:51:25;;;;;;;7.80;0.70;;;;;;;6.70;55.47;99865.52;180934;1259;44210;-85
2023/03/27 15:55:53;;;;;;;1.90;1.30;;;;;;;6.41;56.32;99869.48;181036;1260;44157;-85
2023/03/27 16:00:09;;;;;;;3.10;1.60;;;;;;;6.09;57.24;99870.98;181043;1259;59606;-85
2023/03/27 16:04:20;;;;;;;2.60;1.80;;;;;;;5.87;55.66;99878.13;180977;1259;43821;-85
2023/03/27 16:08:33;;;;;;;4.00;1.50;;;;;;;5.87;54.07;99883.06;181025;1260;43829;-84
2023/03/27 16:12:40;;;;;;;4.40;1.30;;;;;;;6.00;53.93;99887.65;180913;1260;44139;-83
2023/03/27 16:16:43;;;;;;;1.00;0.90;;;;;;;6.03;53.71;99887.40;180948;1260;44129;-84
2023/03/27 16:20:46;;;;;;;3.20;1.20;;;;;;;6.00;53.72;99895.00;180911;1259;60238;-85
2023/03/27 16:24:51;;;;;;;0.90;0.80;;;;;;;6.05;55.71;99902.41;180945;1260;44198;-83
2023/03/27 16:28:59;;;;;;;3.30;1.00;;;;;;;6.10;57.45;99910.73;180897;1260;43788;-84
2023/03/27 16:33:10;;;;;;;6.00;1.60;;;;;;;6.08;56.79;99911.04;181001;1260;43819;-86
2023/03/27 16:37:20;;;;;;;4.00;1.20;;;;;;;5.97;54.53;99917.41;181096;1259;44236;-86
2023/03/27 16:41:23;;;;;;;2.50;0.90;;;;;;;5.99;54.48;99921.67;180941;1257;63157;-83
2023/03/27 16:45:26;;;;;;;1.30;0.80;;;;;;;5.98;57.18;99924.20;180880;1259;44299;-83
2023/03/27 16:49:29;;;;;;;2.80;1.80;;;;;;;5.93;58.12;99929.10;180902;1258;44130;-83
2023/03/27 16:53:32;;;;;;;2.50;1.10;;;;;;;5.86;57.14;99938.77;180849;1260;43847;-83
2023/03/27 16:57:36;;;;;;;2.90;1.50;;;;;;;5.64;58.07;99948.43;180761;1261;43980;-83
2023/03/27 17:01:39;;;;;;;5.40;1.90;;;;;;;5.42;58.98;99953.08;180906;1260;58640;-83
2023/03/27 17:05:42;;;;;;;3.50;2.80;;;;;;;5.26;59.96;99962.19;180963;1259;44306;-85
2023/03/27 17:09:46;;;;;;;4.00;2.50;;;;;;;5.05;58.66;99970.20;181024;1259;43846;-86
2023/03/27 17:13:49;;;;;;;6.30;2.30;;;;;;;4.85;57.98;99974.78;180979;1259;44518;-85
2023/03/27 17:17:52;;;;;;;1.30;1.00;;;;;;;4.69;56.81;99982.21;181004;1259;44183;-85
2023/03/27 17:21:55;;;;;;;1.70;1.20;;;;;;;4.54;57.61;99987.92;181059;1259;58616;-86
2023/03/27 17:26:00;;;;;;;1.90;1.00;;;;;;;4.41;57.60;99985.71;180980;1259;43905;-86
2023/03/27 17:30:06;;;;;;;6.20;1.70;;;;;;;4.27;57.37;99984.98;180954;1260;44212;-86
2023/03/27 17:34:09;;;;;;;1.30;1.00;;;;;;;4.19;57.86;99992.33;180921;1260;43950;-86
2023/03/27 17:38:13;;;;;;;2.90;1.80;;;;;;;4.08;58.27;99998.92;180938;1260;44354;-85
2023/03/27 17:42:17;;;;;;;2.30;1.60;;;;;;;3.99;57.84;100008.39;180923;1259;57988;-85
2023/03/27 17:46:21;;;;;;;2.20;1.30;;;;;;;3.95;57.57;100010.73;181028;1259;44059;-85
2023/03/27 17:50:25;;;;;;;3.80;3.00;;;;;;;3.95;57.67;100020.23;180961;1259;44152;-85
2023/03/27 17:54:28;;;;;;;8.60;4.70;;;;;;;3.94;59.07;100026.42;180925;1260;45458;-85
2023/03/27 17:58:33;;;;;;;3.30;3.00;;;;;;;3.94;62.57;100032.74;180824;1259;44078;-85
2023/03/27 18:02:37;;;;;;;2.50;1.60;;;;;;;3.56;68.69;100038.03;180991;1260;57363;-83
2023/03/27 18:06:41;;;;;;;3.80;2.50;;;;;;;3.09;71.38;100042.00;180894;1260;44687;-84
2023/03/27 18:10:53;;;;;;;4.70;3.30;;;;;;;2.88;73.23;100046.61;180922;1259;43934;-87
2023/03/27 18:14:57;;;;;;;5.60;3.50;;;;;;;2.79;74.53;100047.30;181008;1259;44170;-87
2023/03/27 18:19:01;;;;;;;9.10;4.10;;;;;;;2.83;71.73;100054.79;180992;1260;44300;-86
2023/03/27 18:23:05;;;;;;;8.20;5.00;;;;;;;2.88;71.37;100059.44;181019;1260;58295;-86
2023/03/27 18:27:08;;;;;;;8.30;4.70;;;;;;;2.97;72.09;100065.41;180932;1259;44318;-86
2023/03/27 18:31:16;;;;;;;11.20;5.60;;;;;;;3.01;71.98;100069.23;181067;1258;43837;-86
2023/03/27 18:35:20;;;;;;;16.40;6.70;;;;;;;3.01;71.00;100069.41;180975;1258;43899;-86
2023/03/27 18:39:23;;;;;;;12.10;7.40;;;;;;;3.13;67.55;100069.84;180999;1258;43822;-86
2023/03/27 18:43:27;;;;;;;26.10;8.70;;;;;;;3.08;71.95;100080.07;180990;1260;57940;-85
2023/03/27 18:47:31;;;;;;;13.80;6.60;;;;;;;2.83;75.42;100079.99;180894;1259;44171;-86
2023/03/27 18:51:35;;;;;;;12.40;6.20;;;;;;;2.68;76.38;100077.95;180941;1260;44146;-86
2023/03/27 18:55:38;;;;;;;5.70;4.20;;;;;;;2.75;76.33;100080.77;180995;1258;44193;-86
2023/03/27 18:59:45;;;;;;;5.30;3.40;;;;;;;2.83;76.44;100081.76;180972;1259;43903;-89
2023/03/27 19:03:52;;;;;;;7.10;4.80;;;;;;;2.95;76.75;100081.45;180985;1259;60807;-88
2023/03/27 19:07:58;;;;;;;;;;;;;;;3.02;76.90;100088.45;181029;1259;43893;-87
2023/03/27 19:12:02;;;;;;;10.40;7.40;;;;;;;3.04;76.69;100089.07;181001;1258;43760;-87
2023/03/27 19:16:06;;;;;;;7.20;4.00;;;;;;;2.99;76.65;100095.63;181061;1259;43851;-87
2023/03/27 19:20:17;;;;;;;10.60;5.40;;;;;;;2.90;77.86;100097.65;181083;1259;44065;-87
2023/03/27 19:24:20;;;;;;;11.90;6.40;;;;;;;2.84;79.44;100100.10;180999;1259;58271;-86
2023/03/27 19:28:23;;;;;;;6.70;4.10;;;;;;;2.69;82.68;100102.63;181061;1259;44203;-86
2023/03/27 19:32:27;;;;;;;7.40;3.60;;;;;;;2.49;85.85;100107.11;181037;1258;43911;-86
2023/03/27 19:36:31;;;;;;;5.20;3.30;;;;;;;2.37;87.64;100106.36;181000;1260;44398;-83
2023/03/27 19:40:34;;;;;;;5.30;4.00;;;;;;;2.20;89.50;100112.77;180827;1259;44001;-85
2023/03/27 19:44:37;;;;;;;4.40;3.50;;;;;;;2.17;90.64;100111.19;181014;1259;57533;-84
2023/03/27 19:48:41;;;;;;;7.50;3.30;;;;;;;2.10;91.22;100111.52;180990;1259;44486;-84
2023/03/27 19:52:46;;;;;;;4.40;3.10;;;;;;;2.07;90.96;100110.10;180853;1259;43852;-83
2023/03/27 19:57:07;;;;;;;4.30;2.90;;;;;;;2.11;91.08;100110.38;180989;1260;48430;-84
2023/03/27 20:01:11;;;;;;;5.50;3.00;;;;;;;2.05;92.35;100114.36;180826;1259;43831;-84
2023/03/27 20:05:14;;;;;;;5.10;3.80;;;;;;;1.88;93.83;100115.36;180876;1261;59146;-84
2023/03/27 20:09:18;;;;;;;8.50;3.00;;;;;;;1.77;94.64;100111.89;180768;1259;44294;-83
2023/03/27 20:13:21;;;;;;;5.00;4.10;;;;;;;1.64;95.04;100109.71;180978;1259;43872;-85
2023/03/27 20:17:25;;;;;;;6.00;4.40;;;;;;;1.46;95.30;100111.59;180925;1260;44022;-84
2023/03/27 20:21:40;;;;;;;14.50;4.20;;;;;;;1.32;95.48;100110.98;181042;1259;44315;-83
2023/03/27 20:25:44;;;;;;;6.20;4.30;;;;;;;1.22;95.10;100106.38;181019;1258;59243;-85
2023/03/27 20:29:48;;;;;;;6.90;3.00;;;;;;;1.22;94.70;100106.40;181088;1259;44077;-84
2023/03/27 20:33:52;;;;;;;7.40;4.80;;;;;;;1.21;94.88;100103.80;181019;1258;43740;-82
2023/03/27 20:37:55;;;;;;;13.60;5.50;;;;;;;1.29;93.95;100105.56;180969;1260;43966;-82
2023/03/27 20:41:58;;;;;;;8.60;4.90;;;;;;;1.36;93.52;100104.88;181025;1258;44192;-83
2023/03/27 20:46:03;;;;;;;4.80;3.70;;;;;;;1.38;93.79;100103.06;181115;1258;59512;-84
2023/03/27 20:50:08;;;;;;;5.30;4.80;;;;;;;1.41;95.18;100101.86;181008;1258;43968;-84
2023/03/27 20:54:12;;;;;;;5.30;3.50;;;;;;;1.50;96.11;100102.45;181083;1259;44359;-84
2023/03/27 20:58:15;;;;;;;7.30;4.70;;;;;;;1.57;97.00;100100.40;181044;1258;44177;-83
2023/03/27 21:02:20;;;;;;;9.90;6.00;;;;;;;1.67;97.53;100098.05;181104;1258;43922;-83
2023/03/27 21:06:24;;;;;;;8.00;5.40;;;;;;;1.77;98.56;100100.52;181136;1258;57453;-84
2023/03/27 21:10:27;;;;;;;9.70;5.80;;;;;;;1.92;99.98;100100.50;181058;1259;44376;-84
2023/03/27 21:14:31;;;;;;;11.60;5.60;;;;;;;2.09;100.00;100098.97;181146;1258;44053;-84
2023/03/27 21:18:34;;;;;;;9.40;4.30;;;;;;;2.22;99.34;100095.38;181051;1259;44287;-84
2023/03/27 21:22:37;;;;;;;11.00;6.30;;;;;;;2.30;98.36;100096.55;181149;1259;43816;-83
2023/03/27 21:26:41;;;;;;;4.30;3.00;;;;;;;2.31;98.12;100094.72;181071;1258;58345;-83
2023/03/27 21:30:45;;;;;;;4.80;4.30;;;;;;;2.32;97.67;100087.84;180653;1258;590383;-84
2023/03/27 21:34:51;;;;;;;5.10;2.90;;;;;;;2.32;97.84;100083.12;181207;1258;44011;-84
2023/03/27 21:38:55;;;;;;;6.30;4.30;;;;;;;2.31;97.70;100083.89;181052;1258;44206;-84
2023/03/27 21:42:58;;;;;;;7.10;4.00;;;;;;;2.25;97.57;100074.20;181114;1258;44088;-84
2023/03/27 21:47:01;;;;;;;5.30;3.80;;;;;;;2.21;97.75;100073.36;181126;1259;58313;-84
2023/03/27 21:51:06;;;;;;;7.30;4.10;;;;;;;2.16;97.98;100072.02;181112;1258;43777;-84
2023/03/27 21:55:09;;;;;;;3.50;2.80;;;;;;;2.13;97.87;100075.17;181129;1258;44190;-84
2023/03/27 21:59:13;;;;;;;3.60;3.10;;;;;;;2.07;98.08;100075.25;181173;1258;43797;-84
2023/03/27 22:03:16;;;;;;;4.60;3.20;;;;;;;2.03;98.49;100080.54;181165;1258;44161;-84
2023/03/27 22:07:20;;;;;;;12.80;5.40;;;;;;;1.95;99.04;100082.16;181279;1258;59574;-83
2023/03/27 22:11:23;;;;;;;3.60;3.20;;;;;;;1.89;99.25;100081.04;181166;1258;43941;-84
2023/03/27 22:15:28;;;;;;;5.50;2.90;;;;;;;1.88;98.86;100077.25;181153;1257;43892;-84
2023/03/27 22:19:31;;;;;;;6.00;3.20;;;;;;;1.93;98.55;100072.65;181155;1258;43847;-84
2023/03/27 22:23:35;;;;;;;2.30;2.10;;;;;;;1.90;98.60;100070.52;181152;1257;43798;-84
2023/03/27 22:27:38;;;;;;;2.30;2.10;;;;;;;1.85;99.37;100070.02;181203;1258;58919;-84
2023/03/27 22:31:42;;;;;;;3.40;2.20;;;;;;;1.85;99.50;100071.08;181162;1259;44032;-84
2023/03/27 22:35:49;;;;;;;2.10;1.90;;;;;;;1.84;99.45;100070.95;181193;1258;44188;-84
2023/03/27 22:39:53;;;;;;;2.80;1.90;;;;;;;1.79;99.49;100072.11;181023;1258;44143;-84
2023/03/27 22:43:59;;;;;;;4.20;2.20;;;;;;;1.81;99.22;100071.66;181205;1258;43972;-84
2023/03/27 22:48:04;;;;;;;3.20;2.50;;;;;;;1.79;99.20;100074.21;181079;1258;57255;-84
2023/03/27 22:52:07;;;;;;;4.60;2.40;;;;;;;1.77;99.42;100073.07;181072;1258;44155;-84
2023/03/27 22:56:10;;;;;;;5.10;3.40;;;;;;;1.77;98.90;100070.78;181221;1258;43928;-84
2023/03/27 23:00:14;;;;;;;3.80;2.80;;;;;;;1.76;98.91;100071.00;181002;1258;44146;-84
2023/03/27 23:04:17;;;;;;;2.30;1.80;;;;;;;1.72;98.65;100068.73;181141;1258;43968;-84
2023/03/27 23:08:31;;;;;;;2.50;2.10;;;;;;;1.76;98.25;100072.24;181144;1258;57934;-84
2023/03/27 23:12:34;;;;;;;5.00;3.10;;;;;;;1.75;97.87;100074.92;181129;1258;44161;-84
2023/03/27 23:16:38;;;;;;;3.40;2.10;;;;;;;1.70;97.77;100072.70;181204;1258;43873;-84
2023/03/27 23:20:41;;;;;;;4.30;2.30;;;;;;;1.68;98.10;100077.34;181142;1258;44104;-83
2023/03/27 23:24:45;;;;;;;5.10;2.40;;;;;;;1.66;97.92;100083.19;181095;1258;44011;-84
2023/03/27 23:28:48;;;;;;;5.30;2.50;;;;;;;1.65;97.64;100080.98;181198;1258;59270;-83
2023/03/27 23:32:51;;;;;;;2.60;1.40;;;;;;;1.65;97.49;100080.80;181062;1259;44030;-84
2023/03/27 23:36:55;;;;;;;2.00;1.50;;;;;;;1.67;97.29;100080.52;181116;1259;44112;-83
2023/03/27 23:41:00;;;;;;;3.00;1.80;;;;;;;1.69;97.10;100079.55;180996;1260;44263;-84
2023/03/27 23:45:05;;;;;;;5.40;1.80;;;;;;;1.72;97.34;100075.22;181110;1257;43745;-83
2023/03/27 23:49:11;;;;;;;5.50;2.80;;;;;;;1.79;96.89;100067.02;181061;1259;58084;-84
2023/03/27 23:53:15;;;;;;;3.00;1.80;;;;;;;1.83;96.90;100059.64;181095;1257;43949;-84
2023/03/27 23:57:18;;;;;;;9.40;5.10;;;;;;;1.80;97.23;100058.56;181091;1258;44115;-84
